Pickerel, Wisconsin
Current Conditions -  °F | °C
As of 4:35 AM on Saturday 25 Oct 2014 (Local Time) from KAIG Reporting Station
Haze Haze  
Wind Chill: 50°   Ceiling: Unl
Heat Index: 50°   Visibility: 5mi
Dew Point: 49°   Wind: 9mph
Humidity: 96%   Direction: 280°W
Pressure: 29.81"   Gusts: NA
Location:  45.36°N, 88.91°W
Report Text: KAIG 250935Z AUTO 28008KT 5SM BR CLR 10/10 A2981 RMK AO2 T01010095
Loading
Personal Weather Stations






























Interactive Weather Map
Tropical Storm Tracking
New forecast layout! Learn more

10-Day Weather Forecast

Advertisements
Track Severe Weather on mobile